KFLG

Flagstaff Pulliam Airport

Flagstaff, Arizona, USA
METAR KFLG 191057Z AUTO 21003KT 10SM CLR M05/M08 A3022 RMK AO2 SLP217 T10501078
Observed Flight Rules
Dec-19 @ 10:57 UTC (an hour ago) Visual Flight Rules
Wind Visibility Clouds
210° at 3 knots 10 miles
  • Clear skies
Temperatures Readings
Current -5°C / 23°F
Dewpoint -8°C / 18°F
Humidity 80%
Altimeter 30.22" Hg
Pressure 1021.7 hPa
Elevation 2134
METAR KFLG 191057Z AUTO 21003KT 10SM CLR M05/M08 A3022 RMK AO2 SLP217 T10501078
Observed Flight Rules
Dec-19 @ 10:57 UTC
(an hour ago)
VFR
Wind Visibility
210° at 3 knots 10 miles
Clouds
  • Clear skies
Temperature Dewpoint
-5°C / 23°F -8°C / 18°F
Humidity Altimeter Pressure
80% 30.22" Hg 1021.7 hPa